Portada
METAR-TAF:

METAR-TAF

Aeroports :

Subang Jaya, Malàisia

latitud: 03-07N, longitud: 101-32E, altitud: 27 m

Observació

L'informe es va fer fa 37 minuts, a les 03:00 UTC
Vent 2 kt amb direcció variable
Temperatura 31°C
Humitat 63%
Pressió 1013 hPa
Visibilitat 10 km o més
Escasses núvols a una alçada de 1700 ft, Cumulonimbus.

METAR: WMSA 010300Z VRB02KT 9999 FEW017CB 31/23 Q1013

Hora: 11:37 (03:37 UTC)

Pronòstic

L'informe es va fer fa 4 hores i 37 minuts, a les 23:00 UTC
Pronòstic vàlid del 01 a les 00 UTC al 02 a les 00 UTC
Vent 6 kt del Nord-Oest
Visibilitat 10 km o més
Escasses núvols a una alçada de 1800 ft
Probabilitat 30% :
Temporalment
l' 01 a les 08 UTC al 01 a les 12 UTC
Vent 10 kt del Oest
Visibilitat: 4000 m
Escasses núvols a una alçada de 1700 ft, Cumulonimbus.
tempesta, pluja

TAF: WMSA 282300Z 0100/0200 31006KT 9999 FEW018 PROB30 TEMPO 0108/0112 28010KT 4000 TSRA FEW017CB

Observacions i pronòstics meteorològics de més de 4000 aeroports (METAR i TAF).

Les estacions disponibles són els punts grocs i vermells al mapa.

Posi el ratolí al punt desitjat per veure el nom de l'estació.

Feu clic per veure les observacions i els pronòstics meteorològics.

Per canviar el mapa: feu clic els botons verds amb una creu de color negre per apropar; al botó verd amb un guió per allunyar la imatge; o en les fletxes verdes per a mapes adjacents.


METAR-TAF: